createdAt,value
2023-03-17T00:01:47.950Z,24.73
2023-03-17T00:06:51.895Z,22.98
2023-03-17T00:11:55.516Z,25.25
2023-03-17T00:17:01.714Z,24.02
2023-03-17T00:22:08.139Z,23.83
2023-03-17T00:27:13.480Z,21.63
2023-03-17T00:32:21.607Z,20.40
2023-03-17T00:37:25.265Z,21.83
2023-03-17T00:42:28.748Z,20.67
2023-03-17T00:47:33.859Z,18.35
2023-03-17T00:52:37.320Z,20.33
2023-03-17T00:57:41.336Z,19.83
2023-03-17T01:02:46.594Z,22.92
2023-03-17T01:07:53.698Z,22.42
2023-03-17T01:13:00.651Z,23.55
2023-03-17T01:18:05.541Z,23.42
2023-03-17T01:23:09.556Z,21.05
2023-03-17T01:28:15.905Z,22.20
2023-03-17T01:33:20.812Z,22.90
2023-03-17T01:38:24.616Z,21.95
2023-03-17T01:43:29.802Z,21.15
2023-03-17T01:48:40.124Z,20.85
2023-03-17T01:53:47.453Z,20.33
2023-03-17T01:58:54.654Z,19.38
2023-03-17T02:04:00.273Z,19.67
2023-03-17T02:09:04.010Z,18.65
2023-03-17T02:14:08.056Z,19.35
2023-03-17T02:19:13.647Z,18.85
2023-03-17T02:24:24.329Z,18.42
2023-03-17T02:29:28.696Z,16.08
2023-03-17T02:34:32.644Z,16.35
2023-03-17T02:39:37.959Z,14.25
2023-03-17T02:44:41.492Z,15.52
2023-03-17T02:49:45.792Z,14.90
2023-03-17T02:54:50.778Z,11.68
2023-03-17T03:05:24.838Z,12.43
2023-03-17T03:10:29.818Z,12.45
2023-03-17T03:15:33.770Z,13.07
2023-03-17T03:20:37.291Z,11.20
2023-03-17T03:25:42.660Z,11.77
2023-03-17T03:30:46.973Z,11.20
2023-03-17T03:35:50.492Z,10.73
2023-03-17T03:40:55.275Z,11.02
2023-03-17T03:45:59.107Z,9.82
2023-03-17T03:51:03.670Z,10.00
2023-03-17T03:56:09.030Z,9.65
2023-03-17T04:01:12.633Z,8.82
2023-03-17T04:06:16.253Z,9.75
2023-03-17T04:11:21.140Z,9.02
2023-03-17T04:16:25.172Z,9.65
2023-03-17T04:21:28.730Z,9.13
2023-03-17T04:26:33.801Z,9.85
2023-03-17T04:31:37.746Z,10.20
2023-03-17T04:36:42.461Z,11.95
2023-03-17T04:41:47.441Z,11.32
2023-03-17T04:46:50.852Z,10.55
2023-03-17T04:51:54.292Z,11.98
2023-03-17T04:56:59.308Z,10.57
2023-03-17T05:02:02.736Z,10.30
2023-03-17T05:07:06.506Z,9.98
2023-03-17T05:12:12.465Z,9.35
2023-03-17T05:17:16.659Z,9.50
2023-03-17T05:22:20.816Z,10.35
2023-03-17T05:27:25.750Z,10.40
2023-03-17T05:32:29.203Z,10.02
2023-03-17T05:37:33.222Z,10.55
2023-03-17T05:42:38.040Z,10.80
2023-03-17T05:47:41.824Z,10.65
2023-03-17T05:52:45.350Z,11.20
2023-03-17T05:57:50.407Z,10.93
2023-03-17T06:02:53.806Z,11.32
2023-03-17T06:07:57.267Z,12.07
2023-03-17T06:13:03.944Z,11.40
2023-03-17T06:18:07.581Z,13.23
2023-03-17T06:23:11.161Z,14.98
2023-03-17T06:28:16.970Z,15.90
2023-03-17T06:33:20.404Z,17.15
2023-03-17T06:38:24.740Z,17.45
2023-03-17T06:43:29.520Z,19.70
2023-03-17T06:48:33.994Z,21.15
2023-03-17T06:53:37.841Z,22.55
2023-03-17T06:58:42.658Z,20.40
2023-03-17T07:03:46.653Z,23.23
2023-03-17T07:08:50.931Z,21.52
2023-03-17T07:13:56.374Z,19.77
2023-03-17T07:19:00.157Z,18.58
2023-03-17T07:24:04.522Z,18.90
2023-03-17T07:29:09.817Z,18.13
2023-03-17T07:34:13.752Z,19.73
2023-03-17T07:39:17.156Z,18.05
2023-03-17T07:44:22.695Z,17.00
2023-03-17T07:49:40.454Z,17.13
2023-03-17T07:54:44.902Z,15.68
2023-03-17T07:59:50.543Z,15.95
2023-03-17T08:04:54.618Z,14.70
2023-03-17T08:09:58.089Z,12.95
2023-03-17T08:15:03.205Z,12.32
2023-03-17T08:20:08.997Z,12.05
2023-03-17T08:25:12.740Z,10.95
2023-03-17T08:30:18.184Z,10.90
2023-03-17T08:35:21.797Z,12.00
2023-03-17T08:40:25.633Z,10.88
2023-03-17T08:45:30.759Z,12.18
2023-03-17T08:50:35.506Z,10.85
2023-03-17T08:55:38.970Z,10.82
2023-03-17T09:00:43.721Z,9.70
2023-03-17T09:05:47.397Z,10.73
2023-03-17T09:10:52.067Z,11.20
2023-03-17T09:15:57.050Z,8.52
2023-03-17T09:21:00.700Z,8.55
2023-03-17T09:26:04.323Z,7.72
2023-03-17T09:31:11.483Z,7.43
2023-03-17T09:36:15.240Z,8.82
2023-03-17T09:41:57.027Z,6.90
2023-03-17T09:47:13.893Z,6.85
2023-03-17T09:52:20.378Z,5.50
2023-03-17T09:57:30.571Z,5.28
2023-03-17T10:02:38.180Z,5.75
2023-03-17T10:07:46.767Z,5.15
2023-03-17T10:12:59.751Z,6.55
2023-03-17T10:18:10.881Z,6.68
2023-03-17T10:23:18.748Z,5.88
2023-03-17T10:28:35.825Z,5.28
2023-03-17T10:33:40.973Z,4.60
2023-03-17T10:38:52.076Z,4.80
2023-03-17T10:43:55.720Z,3.70
2023-03-17T10:49:08.736Z,4.35
2023-03-17T10:54:18.624Z,3.90
2023-03-17T11:04:42.561Z,3.92
2023-03-17T11:09:50.704Z,3.65
2023-03-17T11:15:00.172Z,4.10
2023-03-17T11:20:20.854Z,3.42
2023-03-17T11:25:25.846Z,4.60
2023-03-17T11:30:35.648Z,3.38
2023-03-17T11:35:51.470Z,3.47
2023-03-17T11:41:30.506Z,5.00
2023-03-17T11:46:38.408Z,3.67
2023-03-17T11:51:54.705Z,3.78
2023-03-17T11:57:03.833Z,3.50
2023-03-17T12:02:21.662Z,3.08
2023-03-17T12:07:30.264Z,2.97
2023-03-17T12:12:38.833Z,3.63
2023-03-17T12:17:50.084Z,3.03
2023-03-17T12:22:59.306Z,3.75
2023-03-17T12:28:08.926Z,3.47
2023-03-17T12:33:21.825Z,3.13
2023-03-17T12:43:40.046Z,3.28
2023-03-17T12:49:28.340Z,3.10
2023-03-17T12:54:34.983Z,3.20
2023-03-17T12:59:42.827Z,3.28
2023-03-17T13:04:57.956Z,3.50
2023-03-17T13:10:40.848Z,3.70
2023-03-17T13:16:05.893Z,3.60
2023-03-17T13:21:15.168Z,4.20
2023-03-17T13:26:23.280Z,4.28
2023-03-17T13:31:37.823Z,3.35
2023-03-17T13:36:52.950Z,3.35
2023-03-17T13:42:17.630Z,3.58
2023-03-17T13:47:35.762Z,4.05
2023-03-17T13:52:48.099Z,4.18
2023-03-17T13:58:16.112Z,3.80
2023-03-17T14:03:24.220Z,3.90
2023-03-17T14:08:32.651Z,5.35
2023-03-17T14:13:45.931Z,3.67
2023-03-17T14:18:54.982Z,3.53
2023-03-17T14:24:00.319Z,3.65
2023-03-17T14:29:06.134Z,4.28
2023-03-17T14:34:15.065Z,3.25
2023-03-17T14:39:23.917Z,3.83
2023-03-17T14:44:29.217Z,2.78
2023-03-17T14:49:33.729Z,2.67
2023-03-17T14:54:37.313Z,3.42
2023-03-17T14:59:43.472Z,3.63
2023-03-17T15:04:54.747Z,3.33
2023-03-17T15:10:02.798Z,3.85
2023-03-17T15:15:22.483Z,3.40
2023-03-17T15:20:26.752Z,4.90
2023-03-17T15:25:35.678Z,4.13
2023-03-17T15:30:47.628Z,4.05
2023-03-17T15:35:52.406Z,4.13
2023-03-17T15:40:56.005Z,4.45
2023-03-17T15:46:03.682Z,4.55
2023-03-17T15:51:08.514Z,4.47
2023-03-17T15:56:19.157Z,4.60
2023-03-17T16:01:27.311Z,5.10
2023-03-17T16:06:31.328Z,5.15
2023-03-17T16:11:34.814Z,4.75
2023-03-17T16:16:42.526Z,4.90
2023-03-17T16:21:46.048Z,4.97
2023-03-17T16:26:50.028Z,5.40
2023-03-17T16:31:55.122Z,6.28
2023-03-17T16:36:59.116Z,6.88
2023-03-17T16:42:03.049Z,6.00
2023-03-17T16:47:10.244Z,7.70
2023-03-17T16:52:13.789Z,6.43
2023-03-17T16:57:17.184Z,7.82
2023-03-17T17:02:22.153Z,8.38
2023-03-17T17:07:25.766Z,11.55
2023-03-17T17:12:29.469Z,13.07
2023-03-17T17:17:35.378Z,10.70
2023-03-17T17:22:39.031Z,8.40
2023-03-17T17:27:44.863Z,9.50
2023-03-17T17:32:50.905Z,13.55
2023-03-17T17:37:56.965Z,9.90
2023-03-17T17:43:00.735Z,7.63
2023-03-17T17:48:05.679Z,7.93
2023-03-17T17:53:12.209Z,7.53
2023-03-17T17:58:17.110Z,7.30
2023-03-17T18:03:32.202Z,8.35
2023-03-17T18:08:36.027Z,7.53
2023-03-17T18:13:40.958Z,7.68
2023-03-17T18:18:47.222Z,10.00
2023-03-17T18:23:55.105Z,9.55
2023-03-17T18:29:00.766Z,9.93
2023-03-17T18:34:09.812Z,11.02
2023-03-17T18:39:13.535Z,11.43
2023-03-17T18:44:18.901Z,11.00
2023-03-17T18:49:27.088Z,11.35
2023-03-17T18:54:31.661Z,11.50
2023-03-17T18:59:35.525Z,10.98
2023-03-17T19:04:46.413Z,11.57
2023-03-17T19:09:51.020Z,13.00
2023-03-17T19:14:55.093Z,14.90
2023-03-17T19:20:00.544Z,14.05
2023-03-17T19:25:05.260Z,13.73
2023-03-17T19:30:11.629Z,12.63
2023-03-17T19:35:17.650Z,14.20
2023-03-17T19:40:22.568Z,13.48
2023-03-17T19:45:26.222Z,12.85
2023-03-17T19:50:32.857Z,13.05
2023-03-17T19:55:37.690Z,12.15
2023-03-17T20:00:43.432Z,12.00
2023-03-17T20:05:49.490Z,10.68
2023-03-17T20:10:53.898Z,10.30
2023-03-17T20:16:01.747Z,10.48
2023-03-17T20:21:08.238Z,10.18
2023-03-17T20:26:12.837Z,10.15
2023-03-17T20:31:18.209Z,11.05
2023-03-17T20:36:26.055Z,15.45
2023-03-17T20:41:30.404Z,14.35
2023-03-17T20:46:35.349Z,11.85
2023-03-17T20:51:42.464Z,10.23
2023-03-17T20:56:46.049Z,11.00
2023-03-17T21:01:50.044Z,11.77
2023-03-17T21:06:55.351Z,11.43
2023-03-17T21:11:58.825Z,12.00
2023-03-17T21:17:02.646Z,10.70
2023-03-17T21:22:08.132Z,10.80
2023-03-17T21:27:12.598Z,12.93
2023-03-17T21:32:16.099Z,13.50
2023-03-17T21:37:21.676Z,14.88
2023-03-17T21:42:27.112Z,15.18
2023-03-17T21:47:33.371Z,13.70
2023-03-17T21:52:40.269Z,12.43
2023-03-17T21:57:45.957Z,12.55
2023-03-17T22:02:51.309Z,13.15
2023-03-17T22:07:58.494Z,12.27
2023-03-17T22:13:04.750Z,10.77
2023-03-17T22:18:12.015Z,11.05
2023-03-17T22:23:19.908Z,9.98
2023-03-17T22:28:25.654Z,10.75
2023-03-17T22:33:30.833Z,11.38
2023-03-17T22:38:38.478Z,11.68
2023-03-17T22:43:42.904Z,14.20
2023-03-17T22:48:47.644Z,13.27
2023-03-17T22:53:56.752Z,12.57
2023-03-17T22:59:02.219Z,14.43
2023-03-17T23:04:16.078Z,13.38
2023-03-17T23:15:32.059Z,11.98
2023-03-17T23:20:38.068Z,13.10
2023-03-17T23:25:43.648Z,13.70
2023-03-17T23:30:47.400Z,13.95
2023-03-17T23:35:51.574Z,14.60
2023-03-17T23:40:58.526Z,13.60
2023-03-17T23:46:02.803Z,12.60
2023-03-17T23:51:07.143Z,12.15
2023-03-17T23:56:13.106Z,13.02
